Startpagina
METAR-TAF:

METAR-TAF

Vliegvelden :

Aeropuerto Internacional de Maiquetía Simón Bolívar

Caracas, Venezuela

breedte: 10-36N, lengte: 066-59W, hoogte: 43 m

Actueel weer

Dit bericht is 56 minuten geleden gemaakt, om 07:00 UTC
Temperatuur 26°C
Vochtigheid 84%
Druk 1013 hPa
Zicht 10 km of meer
Gebroken wolken op 1600 ft

METAR: SVMI 230700Z /////KT 9999 BKN016 26/23 Q1013

Tijdstip: 03:56 (07:56 UTC)

Verwachting

Dit bericht is 3 uur en het 56 minuten geleden gemaakt, om 04:00 UTC
Verwachting geldig van 23 om 06 UTC tot 24 om 06 UTC
Wind 2 kt uit het noorden
Zicht 10 km of meer
Verspreide wolken op 1600 ft
Wijzigt naar
van 23 om 15 UTC tot 23 om 19 UTC
Wind 3 kt uit het zuiden
Zicht: 9000 m
Gebroken wolken op 1600 ft
motregen

TAF: SVMI 230400Z 2306/2406 35002KT 9999 SCT016 TX32/18Z TN23/09Z BECMG 2315/2319 18003KT 9000 DZ BKN016

Waarnemingen en weersverwachtingen van meer dan 4000 vliegvelden (METAR en TAF).

De beschikbare stations zijn de gele en rode punten op de kaart.

Ga met uw muis naar het station om de naam te zien.

Klik dan om waarnemingen en weersverwachtingen te zien.

kaart wijzigen: klik op de groene knoppen met een zwart kruis om in te zoomen, op de groene knop met een streepje om uit te zoomen of op de groene pijlen voor aangrenzende kaarten.


METAR-TAF: